Conner, Montana
Current Conditions -  °F | °C
As of 6:53 PM on Tuesday 21 Oct 2014 (Local Time) from KMSO Reporting Station
Broken Clouds Broken Clouds  
Wind Chill: 45°   Ceiling: 6000
Heat Index: 47°   Visibility: 10mi
Dew Point: 45°   Wind: 5mph
Humidity: 93%   Direction: 350°N
Pressure: 30"   Gusts: NA
Location:  45.94°N, 114.11°W
Report Text: KMSO 220053Z 35004KT 10SM SCT048 BKN060 08/07 A3000 RMK AO2 SLP164 T00830072
Loading
Personal Weather Stations






























Interactive Weather Map
Tropical Storm Tracking
New forecast layout! Learn more

10-Day Weather Forecast

Advertisements
Track Severe Weather on mobile